Aviation Digital Data Service (ADDS)

Output produced by TAFs form (1426 UTC 16 July 2018)
found at http://www.aviationweather.gov/adds/tafs/
 
METAR text: ELLX 161420Z 02005KT 320V110 CAVOK 28/09 Q1013 NOSIG
Conditions at: ELLX (LUXEMBOURG (AUT), LU) observed 1420 UTC 16 July 2018
Temperature: 28.0°C (82°F)
Dewpoint: 9.0°C (48°F) [RH = 30%]
Pressure (altimeter): 29.91 inches Hg (1013.0 mb)
Winds: from the NNE (20 degrees) at 6 MPH (5 knots; 2.6 m/s)
Visibility: 6 or more miles (10+ km)
Ceiling: ceiling and visibility are OK
Clouds: unknown
Weather: no significant weather observed at this time

Forecast for: ELLX (LUXEMBOURG (AUT), LU)
Text: TAF ELLX 161100Z 1612/1718 34005KT CAVOK
Forecast period: 1200 UTC 16 July 2018 to 1800 UTC 17 July 2018
Forecast type: FROM: standard forecast or significant change
Winds: from the NNW (340 degrees) at 6 MPH (5 knots; 2.6 m/s)
Visibility: 6 or more miles (10+ km)
Clouds: not forecast
Weather: NSW  (no significant weather)
Text: PROB30
Forecast period: 1200 to 2000 UTC 16 July 2018
Forecast type: TEMPORARY: The following changes expected for less than half the time period
Clouds: few clouds at 5000 feet AGL
Weather: no significant weather forecast for this period